sensor_id;sensor_type;location;lat;lon;timestamp;temperature;humidity
22966;DHT22;11649;48.090;9.754;2023-09-07T00:02:05;15.20;99.90
22966;DHT22;11649;48.090;9.754;2023-09-07T00:04:32;15.20;99.90
22966;DHT22;11649;48.090;9.754;2023-09-07T00:06:59;15.20;99.90
22966;DHT22;11649;48.090;9.754;2023-09-07T00:09:27;15.10;99.90
22966;DHT22;11649;48.090;9.754;2023-09-07T00:11:54;15.20;99.90
22966;DHT22;11649;48.090;9.754;2023-09-07T00:14:20;15.10;99.90
22966;DHT22;11649;48.090;9.754;2023-09-07T00:16:47;15.10;99.90
22966;DHT22;11649;48.090;9.754;2023-09-07T00:19:14;15.10;99.90
22966;DHT22;11649;48.090;9.754;2023-09-07T00:21:41;15.10;99.90
22966;DHT22;11649;48.090;9.754;2023-09-07T00:24:08;15.10;99.90
22966;DHT22;11649;48.090;9.754;2023-09-07T00:26:34;15.10;99.90
22966;DHT22;11649;48.090;9.754;2023-09-07T00:29:01;15.10;99.90
22966;DHT22;11649;48.090;9.754;2023-09-07T00:31:28;15.10;99.90
22966;DHT22;11649;48.090;9.754;2023-09-07T00:33:55;14.90;99.90
22966;DHT22;11649;48.090;9.754;2023-09-07T00:36:22;14.90;99.90
22966;DHT22;11649;48.090;9.754;2023-09-07T00:38:49;15.00;99.90
22966;DHT22;11649;48.090;9.754;2023-09-07T00:41:15;15.00;99.90
22966;DHT22;11649;48.090;9.754;2023-09-07T00:43:42;14.90;99.90
22966;DHT22;11649;48.090;9.754;2023-09-07T00:46:09;14.80;99.90
22966;DHT22;11649;48.090;9.754;2023-09-07T00:48:37;14.90;99.90
22966;DHT22;11649;48.090;9.754;2023-09-07T00:51:04;14.90;99.90
22966;DHT22;11649;48.090;9.754;2023-09-07T00:53:31;15.00;99.90
22966;DHT22;11649;48.090;9.754;2023-09-07T00:55:58;15.10;99.90
22966;DHT22;11649;48.090;9.754;2023-09-07T00:58:26;15.30;99.90
22966;DHT22;11649;48.090;9.754;2023-09-07T01:00:53;15.30;99.90
22966;DHT22;11649;48.090;9.754;2023-09-07T01:03:20;15.30;99.90
22966;DHT22;11649;48.090;9.754;2023-09-07T01:06:12;15.10;99.90
22966;DHT22;11649;48.090;9.754;2023-09-07T01:08:44;14.90;99.90
22966;DHT22;11649;48.090;9.754;2023-09-07T01:11:18;14.70;99.90
22966;DHT22;11649;48.090;9.754;2023-09-07T01:13:50;14.60;99.90
22966;DHT22;11649;48.090;9.754;2023-09-07T01:16:20;14.60;99.90
22966;DHT22;11649;48.090;9.754;2023-09-07T01:18:47;14.60;99.90
22966;DHT22;11649;48.090;9.754;2023-09-07T01:21:14;14.60;99.90
22966;DHT22;11649;48.090;9.754;2023-09-07T01:23:42;14.60;99.90
22966;DHT22;11649;48.090;9.754;2023-09-07T01:26:10;14.60;99.90
22966;DHT22;11649;48.090;9.754;2023-09-07T01:28:37;14.60;99.90
22966;DHT22;11649;48.090;9.754;2023-09-07T01:31:05;14.50;99.90
22966;DHT22;11649;48.090;9.754;2023-09-07T01:33:33;14.50;99.90
22966;DHT22;11649;48.090;9.754;2023-09-07T01:36:00;14.50;99.90
22966;DHT22;11649;48.090;9.754;2023-09-07T01:38:26;14.50;99.90
22966;DHT22;11649;48.090;9.754;2023-09-07T01:40:53;14.50;99.90
22966;DHT22;11649;48.090;9.754;2023-09-07T01:43:21;14.60;99.90
22966;DHT22;11649;48.090;9.754;2023-09-07T01:45:47;14.60;99.90
22966;DHT22;11649;48.090;9.754;2023-09-07T01:48:14;14.60;99.90
22966;DHT22;11649;48.090;9.754;2023-09-07T01:50:41;14.60;99.90
22966;DHT22;11649;48.090;9.754;2023-09-07T01:53:08;14.70;99.90
22966;DHT22;11649;48.090;9.754;2023-09-07T01:55:35;14.80;99.90
22966;DHT22;11649;48.090;9.754;2023-09-07T01:58:02;14.80;99.90
22966;DHT22;11649;48.090;9.754;2023-09-07T02:00:29;14.80;99.90
22966;DHT22;11649;48.090;9.754;2023-09-07T02:02:56;14.70;99.90
22966;DHT22;11649;48.090;9.754;2023-09-07T02:05:23;14.70;99.90
22966;DHT22;11649;48.090;9.754;2023-09-07T02:07:50;14.70;99.90
22966;DHT22;11649;48.090;9.754;2023-09-07T02:10:17;14.60;99.90
22966;DHT22;11649;48.090;9.754;2023-09-07T02:12:45;14.30;99.90
22966;DHT22;11649;48.090;9.754;2023-09-07T02:15:12;14.10;99.90
22966;DHT22;11649;48.090;9.754;2023-09-07T02:17:39;14.00;99.90
22966;DHT22;11649;48.090;9.754;2023-09-07T02:20:07;13.90;99.90
22966;DHT22;11649;48.090;9.754;2023-09-07T02:22:38;13.90;99.90
22966;DHT22;11649;48.090;9.754;2023-09-07T02:25:05;14.00;99.90
22966;DHT22;11649;48.090;9.754;2023-09-07T02:27:33;14.10;99.90
22966;DHT22;11649;48.090;9.754;2023-09-07T02:30:00;14.10;99.90
22966;DHT22;11649;48.090;9.754;2023-09-07T02:32:26;14.20;99.90
22966;DHT22;11649;48.090;9.754;2023-09-07T02:34:53;14.30;99.90
22966;DHT22;11649;48.090;9.754;2023-09-07T02:37:20;14.30;99.90
22966;DHT22;11649;48.090;9.754;2023-09-07T02:39:47;14.30;99.90
22966;DHT22;11649;48.090;9.754;2023-09-07T02:42:14;14.40;99.90
22966;DHT22;11649;48.090;9.754;2023-09-07T02:44:40;14.40;99.90
22966;DHT22;11649;48.090;9.754;2023-09-07T02:47:07;14.50;99.90
22966;DHT22;11649;48.090;9.754;2023-09-07T02:49:38;14.40;99.90
22966;DHT22;11649;48.090;9.754;2023-09-07T02:52:05;14.50;99.90
22966;DHT22;11649;48.090;9.754;2023-09-07T02:54:32;14.60;99.90
22966;DHT22;11649;48.090;9.754;2023-09-07T02:56:59;14.50;99.90
22966;DHT22;11649;48.090;9.754;2023-09-07T02:59:26;14.40;99.90
22966;DHT22;11649;48.090;9.754;2023-09-07T03:01:52;14.50;99.90
22966;DHT22;11649;48.090;9.754;2023-09-07T03:04:19;14.50;99.90
22966;DHT22;11649;48.090;9.754;2023-09-07T03:06:46;14.30;99.90
22966;DHT22;11649;48.090;9.754;2023-09-07T03:09:13;14.30;99.90
22966;DHT22;11649;48.090;9.754;2023-09-07T03:11:40;14.30;99.90
22966;DHT22;11649;48.090;9.754;2023-09-07T03:14:07;14.20;99.90
22966;DHT22;11649;48.090;9.754;2023-09-07T03:16:34;14.20;99.90
22966;DHT22;11649;48.090;9.754;2023-09-07T03:19:01;14.20;99.90
22966;DHT22;11649;48.090;9.754;2023-09-07T03:21:28;14.20;99.90
22966;DHT22;11649;48.090;9.754;2023-09-07T03:23:57;14.10;99.90
22966;DHT22;11649;48.090;9.754;2023-09-07T03:26:24;14.00;99.90
22966;DHT22;11649;48.090;9.754;2023-09-07T03:28:51;14.10;99.90
22966;DHT22;11649;48.090;9.754;2023-09-07T03:31:19;14.00;99.90
22966;DHT22;11649;48.090;9.754;2023-09-07T03:33:46;14.00;99.90
22966;DHT22;11649;48.090;9.754;2023-09-07T03:36:13;13.90;99.90
22966;DHT22;11649;48.090;9.754;2023-09-07T03:38:43;14.00;99.90
22966;DHT22;11649;48.090;9.754;2023-09-07T03:41:10;13.90;99.90
22966;DHT22;11649;48.090;9.754;2023-09-07T03:43:36;14.00;99.90
22966;DHT22;11649;48.090;9.754;2023-09-07T03:46:03;14.00;99.90
22966;DHT22;11649;48.090;9.754;2023-09-07T03:48:30;13.90;99.90
22966;DHT22;11649;48.090;9.754;2023-09-07T03:50:58;14.00;99.90
22966;DHT22;11649;48.090;9.754;2023-09-07T03:53:25;13.90;99.90
22966;DHT22;11649;48.090;9.754;2023-09-07T03:55:52;13.90;99.90
22966;DHT22;11649;48.090;9.754;2023-09-07T03:58:19;13.80;99.90
22966;DHT22;11649;48.090;9.754;2023-09-07T04:00:45;13.70;99.90
22966;DHT22;11649;48.090;9.754;2023-09-07T04:03:12;13.70;99.90
22966;DHT22;11649;48.090;9.754;2023-09-07T04:05:39;13.70;99.90
22966;DHT22;11649;48.090;9.754;2023-09-07T04:08:07;13.80;99.90
22966;DHT22;11649;48.090;9.754;2023-09-07T04:10:37;13.70;99.90
22966;DHT22;11649;48.090;9.754;2023-09-07T04:13:04;13.60;99.90
22966;DHT22;11649;48.090;9.754;2023-09-07T04:15:33;13.50;99.90
22966;DHT22;11649;48.090;9.754;2023-09-07T04:18:00;13.50;99.90
22966;DHT22;11649;48.090;9.754;2023-09-07T04:20:27;13.60;99.90
22966;DHT22;11649;48.090;9.754;2023-09-07T04:22:55;13.60;99.90
22966;DHT22;11649;48.090;9.754;2023-09-07T04:25:22;13.60;99.90
22966;DHT22;11649;48.090;9.754;2023-09-07T04:27:49;13.70;99.90
22966;DHT22;11649;48.090;9.754;2023-09-07T04:30:16;13.70;99.90
22966;DHT22;11649;48.090;9.754;2023-09-07T04:32:43;13.70;99.90
22966;DHT22;11649;48.090;9.754;2023-09-07T04:35:10;13.70;99.90
22966;DHT22;11649;48.090;9.754;2023-09-07T04:37:37;13.70;99.90
22966;DHT22;11649;48.090;9.754;2023-09-07T04:40:06;13.70;99.90
22966;DHT22;11649;48.090;9.754;2023-09-07T04:42:33;13.70;99.90
22966;DHT22;11649;48.090;9.754;2023-09-07T04:45:00;13.70;99.90
22966;DHT22;11649;48.090;9.754;2023-09-07T04:47:27;13.80;99.90
22966;DHT22;11649;48.090;9.754;2023-09-07T04:49:54;13.80;99.90
22966;DHT22;11649;48.090;9.754;2023-09-07T04:52:21;13.80;99.90
22966;DHT22;11649;48.090;9.754;2023-09-07T04:54:47;13.80;99.90
22966;DHT22;11649;48.090;9.754;2023-09-07T04:57:17;13.80;99.90
22966;DHT22;11649;48.090;9.754;2023-09-07T04:59:44;13.70;99.90
22966;DHT22;11649;48.090;9.754;2023-09-07T05:02:11;13.60;99.90
22966;DHT22;11649;48.090;9.754;2023-09-07T05:04:39;13.70;99.90
22966;DHT22;11649;48.090;9.754;2023-09-07T05:07:05;13.80;99.90
22966;DHT22;11649;48.090;9.754;2023-09-07T05:09:32;13.80;99.90
22966;DHT22;11649;48.090;9.754;2023-09-07T05:12:00;13.80;99.90
22966;DHT22;11649;48.090;9.754;2023-09-07T05:14:26;13.80;99.90
22966;DHT22;11649;48.090;9.754;2023-09-07T05:16:53;13.80;99.90
22966;DHT22;11649;48.090;9.754;2023-09-07T05:19:22;13.80;99.90
22966;DHT22;11649;48.090;9.754;2023-09-07T05:21:49;13.70;99.90
22966;DHT22;11649;48.090;9.754;2023-09-07T05:24:16;13.70;99.90
22966;DHT22;11649;48.090;9.754;2023-09-07T05:26:43;13.70;99.90
22966;DHT22;11649;48.090;9.754;2023-09-07T05:29:12;13.70;99.90
22966;DHT22;11649;48.090;9.754;2023-09-07T05:31:39;13.70;99.90
22966;DHT22;11649;48.090;9.754;2023-09-07T05:34:05;13.70;99.90
22966;DHT22;11649;48.090;9.754;2023-09-07T05:36:32;13.70;99.90
22966;DHT22;11649;48.090;9.754;2023-09-07T05:38:59;13.60;99.90
22966;DHT22;11649;48.090;9.754;2023-09-07T05:41:28;13.60;99.90
22966;DHT22;11649;48.090;9.754;2023-09-07T05:43:55;13.60;99.90
22966;DHT22;11649;48.090;9.754;2023-09-07T05:46:22;13.70;99.90
22966;DHT22;11649;48.090;9.754;2023-09-07T05:48:49;13.80;99.90
22966;DHT22;11649;48.090;9.754;2023-09-07T05:51:16;13.90;99.90
22966;DHT22;11649;48.090;9.754;2023-09-07T05:53:42;14.00;99.90
22966;DHT22;11649;48.090;9.754;2023-09-07T05:56:09;14.00;99.90
22966;DHT22;11649;48.090;9.754;2023-09-07T05:58:36;14.20;99.90
22966;DHT22;11649;48.090;9.754;2023-09-07T06:01:03;14.30;99.90
22966;DHT22;11649;48.090;9.754;2023-09-07T06:03:31;14.40;99.90
22966;DHT22;11649;48.090;9.754;2023-09-07T06:05:59;14.50;99.90
22966;DHT22;11649;48.090;9.754;2023-09-07T06:08:26;14.60;99.90
22966;DHT22;11649;48.090;9.754;2023-09-07T06:10:53;14.70;99.90
22966;DHT22;11649;48.090;9.754;2023-09-07T06:13:20;14.80;99.90
22966;DHT22;11649;48.090;9.754;2023-09-07T06:15:47;15.00;99.90
22966;DHT22;11649;48.090;9.754;2023-09-07T06:18:14;15.10;99.90
22966;DHT22;11649;48.090;9.754;2023-09-07T06:20:41;15.20;99.90
22966;DHT22;11649;48.090;9.754;2023-09-07T06:23:08;15.20;99.90
22966;DHT22;11649;48.090;9.754;2023-09-07T06:25:34;15.40;99.90
22966;DHT22;11649;48.090;9.754;2023-09-07T06:28:01;15.40;99.90
22966;DHT22;11649;48.090;9.754;2023-09-07T06:30:28;15.50;99.90
22966;DHT22;11649;48.090;9.754;2023-09-07T06:32:55;15.60;99.90
22966;DHT22;11649;48.090;9.754;2023-09-07T06:35:28;15.60;99.90
22966;DHT22;11649;48.090;9.754;2023-09-07T06:37:54;15.70;99.90
22966;DHT22;11649;48.090;9.754;2023-09-07T06:40:22;15.80;99.90
22966;DHT22;11649;48.090;9.754;2023-09-07T06:42:49;16.00;99.90
22966;DHT22;11649;48.090;9.754;2023-09-07T06:45:16;16.10;99.90
22966;DHT22;11649;48.090;9.754;2023-09-07T06:47:43;16.20;99.90
22966;DHT22;11649;48.090;9.754;2023-09-07T06:50:10;16.30;99.90
22966;DHT22;11649;48.090;9.754;2023-09-07T06:52:37;16.40;99.90
22966;DHT22;11649;48.090;9.754;2023-09-07T06:55:04;16.60;99.90
22966;DHT22;11649;48.090;9.754;2023-09-07T06:57:31;16.70;99.90
22966;DHT22;11649;48.090;9.754;2023-09-07T06:59:57;16.80;99.90
22966;DHT22;11649;48.090;9.754;2023-09-07T07:02:24;16.90;99.90
22966;DHT22;11649;48.090;9.754;2023-09-07T07:04:51;17.00;99.90
22966;DHT22;11649;48.090;9.754;2023-09-07T07:07:18;17.00;99.90
22966;DHT22;11649;48.090;9.754;2023-09-07T07:09:45;17.10;99.90
22966;DHT22;11649;48.090;9.754;2023-09-07T07:12:12;17.20;99.90
22966;DHT22;11649;48.090;9.754;2023-09-07T07:14:39;17.20;99.90
22966;DHT22;11649;48.090;9.754;2023-09-07T07:17:06;17.20;99.90
22966;DHT22;11649;48.090;9.754;2023-09-07T07:19:33;17.20;99.90
22966;DHT22;11649;48.090;9.754;2023-09-07T07:22:00;17.20;99.90
22966;DHT22;11649;48.090;9.754;2023-09-07T07:24:26;17.20;99.90
22966;DHT22;11649;48.090;9.754;2023-09-07T07:26:53;17.10;99.90
22966;DHT22;11649;48.090;9.754;2023-09-07T07:29:20;17.00;99.90
22966;DHT22;11649;48.090;9.754;2023-09-07T07:32:08;17.10;99.90
22966;DHT22;11649;48.090;9.754;2023-09-07T07:34:35;17.10;99.90
22966;DHT22;11649;48.090;9.754;2023-09-07T07:37:02;17.10;99.90
22966;DHT22;11649;48.090;9.754;2023-09-07T07:39:30;17.20;99.90
22966;DHT22;11649;48.090;9.754;2023-09-07T07:41:57;17.40;99.90
22966;DHT22;11649;48.090;9.754;2023-09-07T07:44:24;17.50;99.90
22966;DHT22;11649;48.090;9.754;2023-09-07T07:46:51;17.50;99.90
22966;DHT22;11649;48.090;9.754;2023-09-07T07:49:18;17.60;99.90
22966;DHT22;11649;48.090;9.754;2023-09-07T07:52:09;17.70;99.90
22966;DHT22;11649;48.090;9.754;2023-09-07T07:54:36;17.80;99.90
22966;DHT22;11649;48.090;9.754;2023-09-07T07:57:03;17.80;99.90
22966;DHT22;11649;48.090;9.754;2023-09-07T07:59:30;17.80;99.90
22966;DHT22;11649;48.090;9.754;2023-09-07T08:01:57;17.90;99.90
22966;DHT22;11649;48.090;9.754;2023-09-07T08:04:23;17.90;99.90
22966;DHT22;11649;48.090;9.754;2023-09-07T08:06:50;18.00;99.90
22966;DHT22;11649;48.090;9.754;2023-09-07T08:09:21;18.00;99.90
22966;DHT22;11649;48.090;9.754;2023-09-07T08:11:48;18.10;99.90
22966;DHT22;11649;48.090;9.754;2023-09-07T08:14:15;18.10;99.90
22966;DHT22;11649;48.090;9.754;2023-09-07T08:16:41;18.20;99.90
22966;DHT22;11649;48.090;9.754;2023-09-07T08:19:09;18.30;99.90
22966;DHT22;11649;48.090;9.754;2023-09-07T08:21:35;18.50;99.90
22966;DHT22;11649;48.090;9.754;2023-09-07T08:24:03;18.60;99.90
22966;DHT22;11649;48.090;9.754;2023-09-07T08:26:30;18.70;99.90
22966;DHT22;11649;48.090;9.754;2023-09-07T08:28:57;18.80;99.90
22966;DHT22;11649;48.090;9.754;2023-09-07T08:31:24;18.90;99.90
22966;DHT22;11649;48.090;9.754;2023-09-07T08:33:51;19.00;99.90
22966;DHT22;11649;48.090;9.754;2023-09-07T08:36:18;19.00;99.90
22966;DHT22;11649;48.090;9.754;2023-09-07T08:38:50;19.20;99.90
22966;DHT22;11649;48.090;9.754;2023-09-07T08:41:17;19.30;99.90
22966;DHT22;11649;48.090;9.754;2023-09-07T08:47:02;19.60;99.90
22966;DHT22;11649;48.090;9.754;2023-09-07T08:49:33;19.70;99.90
22966;DHT22;11649;48.090;9.754;2023-09-07T08:52:01;19.80;99.90
22966;DHT22;11649;48.090;9.754;2023-09-07T08:54:30;19.90;99.90
22966;DHT22;11649;48.090;9.754;2023-09-07T08:56:57;19.90;99.90
22966;DHT22;11649;48.090;9.754;2023-09-07T08:59:24;20.10;99.90
22966;DHT22;11649;48.090;9.754;2023-09-07T09:01:56;20.10;99.90
22966;DHT22;11649;48.090;9.754;2023-09-07T09:04:24;20.20;99.90
22966;DHT22;11649;48.090;9.754;2023-09-07T09:06:51;20.30;99.90
22966;DHT22;11649;48.090;9.754;2023-09-07T09:09:25;20.50;99.90
22966;DHT22;11649;48.090;9.754;2023-09-07T09:11:52;20.60;99.90
22966;DHT22;11649;48.090;9.754;2023-09-07T09:14:20;20.60;99.90
22966;DHT22;11649;48.090;9.754;2023-09-07T09:16:50;20.70;99.90
22966;DHT22;11649;48.090;9.754;2023-09-07T09:19:17;20.80;99.90
22966;DHT22;11649;48.090;9.754;2023-09-07T09:21:45;20.90;99.90
22966;DHT22;11649;48.090;9.754;2023-09-07T09:24:12;20.90;99.90
22966;DHT22;11649;48.090;9.754;2023-09-07T09:26:39;21.00;99.90
22966;DHT22;11649;48.090;9.754;2023-09-07T09:29:06;21.10;99.90
22966;DHT22;11649;48.090;9.754;2023-09-07T09:31:34;21.30;99.90
22966;DHT22;11649;48.090;9.754;2023-09-07T09:34:01;21.40;99.90
22966;DHT22;11649;48.090;9.754;2023-09-07T09:36:36;21.40;99.90
22966;DHT22;11649;48.090;9.754;2023-09-07T09:39:04;21.40;99.90
22966;DHT22;11649;48.090;9.754;2023-09-07T09:41:32;21.40;99.90
22966;DHT22;11649;48.090;9.754;2023-09-07T09:44:03;21.40;99.90
22966;DHT22;11649;48.090;9.754;2023-09-07T09:46:31;21.40;99.90
22966;DHT22;11649;48.090;9.754;2023-09-07T09:48:59;21.50;99.90
22966;DHT22;11649;48.090;9.754;2023-09-07T09:51:27;21.50;99.90
22966;DHT22;11649;48.090;9.754;2023-09-07T09:53:55;21.70;99.90
22966;DHT22;11649;48.090;9.754;2023-09-07T09:56:22;21.80;99.90
22966;DHT22;11649;48.090;9.754;2023-09-07T09:58:49;21.90;99.90
22966;DHT22;11649;48.090;9.754;2023-09-07T10:01:16;22.00;99.90
22966;DHT22;11649;48.090;9.754;2023-09-07T10:03:47;22.10;99.90
22966;DHT22;11649;48.090;9.754;2023-09-07T10:08:53;22.20;99.90
22966;DHT22;11649;48.090;9.754;2023-09-07T10:11:33;22.30;99.90
22966;DHT22;11649;48.090;9.754;2023-09-07T10:14:02;22.30;99.90
22966;DHT22;11649;48.090;9.754;2023-09-07T10:16:53;22.40;99.90
22966;DHT22;11649;48.090;9.754;2023-09-07T10:19:30;22.40;99.90
22966;DHT22;11649;48.090;9.754;2023-09-07T10:21:57;22.50;99.90
22966;DHT22;11649;48.090;9.754;2023-09-07T10:24:28;22.60;99.90
22966;DHT22;11649;48.090;9.754;2023-09-07T10:27:02;22.60;99.90
22966;DHT22;11649;48.090;9.754;2023-09-07T10:29:51;22.60;99.90
22966;DHT22;11649;48.090;9.754;2023-09-07T10:32:23;22.60;99.90
22966;DHT22;11649;48.090;9.754;2023-09-07T10:34:50;22.60;99.90
22966;DHT22;11649;48.090;9.754;2023-09-07T10:37:17;22.60;99.90
22966;DHT22;11649;48.090;9.754;2023-09-07T10:39:45;22.70;99.90
22966;DHT22;11649;48.090;9.754;2023-09-07T10:42:25;22.70;99.90
22966;DHT22;11649;48.090;9.754;2023-09-07T10:44:53;22.80;99.90
22966;DHT22;11649;48.090;9.754;2023-09-07T10:47:20;22.80;99.90
22966;DHT22;11649;48.090;9.754;2023-09-07T10:49:47;22.90;99.90
22966;DHT22;11649;48.090;9.754;2023-09-07T10:52:14;23.00;99.90
22966;DHT22;11649;48.090;9.754;2023-09-07T10:54:41;23.10;99.90
22966;DHT22;11649;48.090;9.754;2023-09-07T10:57:09;23.20;99.90
22966;DHT22;11649;48.090;9.754;2023-09-07T10:59:36;23.30;99.90
22966;DHT22;11649;48.090;9.754;2023-09-07T11:02:06;23.30;99.90
22966;DHT22;11649;48.090;9.754;2023-09-07T11:04:34;23.30;99.90
22966;DHT22;11649;48.090;9.754;2023-09-07T11:07:01;23.30;99.90
22966;DHT22;11649;48.090;9.754;2023-09-07T11:09:30;23.50;99.90
22966;DHT22;11649;48.090;9.754;2023-09-07T11:12:04;23.50;99.90
22966;DHT22;11649;48.090;9.754;2023-09-07T11:14:50;23.70;99.90
22966;DHT22;11649;48.090;9.754;2023-09-07T11:17:17;23.70;99.90
22966;DHT22;11649;48.090;9.754;2023-09-07T11:19:44;23.60;99.90
22966;DHT22;11649;48.090;9.754;2023-09-07T11:22:11;23.70;99.90
22966;DHT22;11649;48.090;9.754;2023-09-07T11:24:38;23.70;99.90
22966;DHT22;11649;48.090;9.754;2023-09-07T11:27:05;23.70;99.90
22966;DHT22;11649;48.090;9.754;2023-09-07T11:29:32;23.80;99.90
22966;DHT22;11649;48.090;9.754;2023-09-07T11:32:10;23.80;99.90
22966;DHT22;11649;48.090;9.754;2023-09-07T11:34:53;24.00;99.90
22966;DHT22;11649;48.090;9.754;2023-09-07T11:37:25;24.00;99.90
22966;DHT22;11649;48.090;9.754;2023-09-07T11:39:52;24.00;99.90
22966;DHT22;11649;48.090;9.754;2023-09-07T11:42:19;24.00;99.90
22966;DHT22;11649;48.090;9.754;2023-09-07T11:44:46;24.00;99.90
22966;DHT22;11649;48.090;9.754;2023-09-07T11:47:13;24.10;99.90
22966;DHT22;11649;48.090;9.754;2023-09-07T11:49:39;24.10;99.90
22966;DHT22;11649;48.090;9.754;2023-09-07T11:52:06;24.20;99.90
22966;DHT22;11649;48.090;9.754;2023-09-07T11:54:34;24.20;99.90
22966;DHT22;11649;48.090;9.754;2023-09-07T11:57:00;24.10;99.90
22966;DHT22;11649;48.090;9.754;2023-09-07T11:59:27;24.20;99.90
22966;DHT22;11649;48.090;9.754;2023-09-07T12:02:10;24.20;99.90
22966;DHT22;11649;48.090;9.754;2023-09-07T12:04:41;24.30;99.90
22966;DHT22;11649;48.090;9.754;2023-09-07T12:07:08;24.20;99.90
22966;DHT22;11649;48.090;9.754;2023-09-07T12:09:35;24.30;99.90
22966;DHT22;11649;48.090;9.754;2023-09-07T12:12:03;24.30;99.90
22966;DHT22;11649;48.090;9.754;2023-09-07T12:14:30;24.30;99.90
22966;DHT22;11649;48.090;9.754;2023-09-07T12:16:58;24.40;99.90
22966;DHT22;11649;48.090;9.754;2023-09-07T12:19:25;24.40;99.90
22966;DHT22;11649;48.090;9.754;2023-09-07T12:21:52;24.40;99.90
22966;DHT22;11649;48.090;9.754;2023-09-07T12:24:19;24.50;99.90
22966;DHT22;11649;48.090;9.754;2023-09-07T12:26:45;24.40;99.90
22966;DHT22;11649;48.090;9.754;2023-09-07T12:29:12;24.40;99.90
22966;DHT22;11649;48.090;9.754;2023-09-07T12:31:39;24.50;99.90
22966;DHT22;11649;48.090;9.754;2023-09-07T12:34:06;24.40;99.90
22966;DHT22;11649;48.090;9.754;2023-09-07T12:36:35;24.40;99.90
22966;DHT22;11649;48.090;9.754;2023-09-07T12:39:01;24.50;99.90
22966;DHT22;11649;48.090;9.754;2023-09-07T12:41:29;24.50;99.90
22966;DHT22;11649;48.090;9.754;2023-09-07T12:43:57;24.60;99.90
22966;DHT22;11649;48.090;9.754;2023-09-07T12:46:25;24.60;99.90
22966;DHT22;11649;48.090;9.754;2023-09-07T12:48:52;24.60;99.90
22966;DHT22;11649;48.090;9.754;2023-09-07T12:51:19;24.60;99.90
22966;DHT22;11649;48.090;9.754;2023-09-07T12:53:45;24.60;99.90
22966;DHT22;11649;48.090;9.754;2023-09-07T12:56:12;24.60;99.90
22966;DHT22;11649;48.090;9.754;2023-09-07T12:58:40;24.60;99.90
22966;DHT22;11649;48.090;9.754;2023-09-07T13:01:07;24.70;99.90
22966;DHT22;11649;48.090;9.754;2023-09-07T13:03:39;24.60;99.90
22966;DHT22;11649;48.090;9.754;2023-09-07T13:06:06;24.70;99.90
22966;DHT22;11649;48.090;9.754;2023-09-07T13:08:33;24.70;99.90
22966;DHT22;11649;48.090;9.754;2023-09-07T13:11:02;24.70;99.90
22966;DHT22;11649;48.090;9.754;2023-09-07T13:13:30;24.80;99.90
22966;DHT22;11649;48.090;9.754;2023-09-07T13:15:58;24.80;99.90
22966;DHT22;11649;48.090;9.754;2023-09-07T13:18:25;24.90;99.90
22966;DHT22;11649;48.090;9.754;2023-09-07T13:20:52;24.80;99.90
22966;DHT22;11649;48.090;9.754;2023-09-07T13:23:26;24.80;99.90
22966;DHT22;11649;48.090;9.754;2023-09-07T13:25:54;24.80;99.90
22966;DHT22;11649;48.090;9.754;2023-09-07T13:28:22;24.90;99.90
22966;DHT22;11649;48.090;9.754;2023-09-07T13:30:50;25.00;99.90
22966;DHT22;11649;48.090;9.754;2023-09-07T13:33:18;25.10;99.90
22966;DHT22;11649;48.090;9.754;2023-09-07T13:35:45;25.00;99.90
22966;DHT22;11649;48.090;9.754;2023-09-07T13:38:12;25.10;99.90
22966;DHT22;11649;48.090;9.754;2023-09-07T13:40:39;25.20;99.90
22966;DHT22;11649;48.090;9.754;2023-09-07T13:43:06;25.40;99.90
22966;DHT22;11649;48.090;9.754;2023-09-07T13:45:46;25.60;99.90
22966;DHT22;11649;48.090;9.754;2023-09-07T13:48:13;26.00;99.90
22966;DHT22;11649;48.090;9.754;2023-09-07T13:50:40;26.50;98.00
22966;DHT22;11649;48.090;9.754;2023-09-07T13:53:07;27.10;98.10
22966;DHT22;11649;48.090;9.754;2023-09-07T13:55:34;27.70;93.50
22966;DHT22;11649;48.090;9.754;2023-09-07T13:58:06;28.70;91.50
22966;DHT22;11649;48.090;9.754;2023-09-07T14:00:33;29.50;85.30
22966;DHT22;11649;48.090;9.754;2023-09-07T14:03:00;29.90;82.30
22966;DHT22;11649;48.090;9.754;2023-09-07T14:05:27;30.30;78.80
22966;DHT22;11649;48.090;9.754;2023-09-07T14:07:54;30.70;76.60
22966;DHT22;11649;48.090;9.754;2023-09-07T14:10:20;31.30;71.80
22966;DHT22;11649;48.090;9.754;2023-09-07T14:12:47;31.60;68.70
22966;DHT22;11649;48.090;9.754;2023-09-07T14:15:15;31.10;68.40
22966;DHT22;11649;48.090;9.754;2023-09-07T14:17:42;30.70;71.60
22966;DHT22;11649;48.090;9.754;2023-09-07T14:20:09;30.90;70.10
22966;DHT22;11649;48.090;9.754;2023-09-07T14:22:36;31.20;66.40
22966;DHT22;11649;48.090;9.754;2023-09-07T14:25:03;30.90;66.90
22966;DHT22;11649;48.090;9.754;2023-09-07T14:27:30;30.80;64.60
22966;DHT22;11649;48.090;9.754;2023-09-07T14:29:57;30.30;68.00
22966;DHT22;11649;48.090;9.754;2023-09-07T14:32:24;30.40;69.10
22966;DHT22;11649;48.090;9.754;2023-09-07T14:34:50;31.00;66.00
22966;DHT22;11649;48.090;9.754;2023-09-07T14:37:17;31.30;66.20
22966;DHT22;11649;48.090;9.754;2023-09-07T14:39:44;31.30;64.60
22966;DHT22;11649;48.090;9.754;2023-09-07T14:42:14;30.30;65.20
22966;DHT22;11649;48.090;9.754;2023-09-07T14:44:44;30.80;67.90
22966;DHT22;11649;48.090;9.754;2023-09-07T14:47:12;30.30;65.70
22966;DHT22;11649;48.090;9.754;2023-09-07T14:49:39;29.80;71.00
22966;DHT22;11649;48.090;9.754;2023-09-07T14:52:26;29.60;70.20
22966;DHT22;11649;48.090;9.754;2023-09-07T14:54:54;29.20;72.20
22966;DHT22;11649;48.090;9.754;2023-09-07T14:57:20;28.60;73.60
22966;DHT22;11649;48.090;9.754;2023-09-07T14:59:48;28.40;77.00
22966;DHT22;11649;48.090;9.754;2023-09-07T15:02:15;28.00;77.60
22966;DHT22;11649;48.090;9.754;2023-09-07T15:04:41;27.80;79.10
22966;DHT22;11649;48.090;9.754;2023-09-07T15:07:11;27.60;78.10
22966;DHT22;11649;48.090;9.754;2023-09-07T15:09:38;27.30;83.20
22966;DHT22;11649;48.090;9.754;2023-09-07T15:12:05;26.90;86.40
22966;DHT22;11649;48.090;9.754;2023-09-07T15:14:32;26.70;89.70
22966;DHT22;11649;48.090;9.754;2023-09-07T15:17:00;26.50;90.50
22966;DHT22;11649;48.090;9.754;2023-09-07T15:19:27;26.20;90.20
22966;DHT22;11649;48.090;9.754;2023-09-07T15:21:54;26.00;91.30
22966;DHT22;11649;48.090;9.754;2023-09-07T15:24:20;26.00;92.60
22966;DHT22;11649;48.090;9.754;2023-09-07T15:27:22;26.00;92.60
22966;DHT22;11649;48.090;9.754;2023-09-07T15:29:49;25.80;93.90
22966;DHT22;11649;48.090;9.754;2023-09-07T15:32:16;25.90;92.90
22966;DHT22;11649;48.090;9.754;2023-09-07T15:34:43;26.10;94.70
22966;DHT22;11649;48.090;9.754;2023-09-07T15:37:09;26.10;92.20
22966;DHT22;11649;48.090;9.754;2023-09-07T15:39:40;26.10;93.10
22966;DHT22;11649;48.090;9.754;2023-09-07T15:42:11;26.00;92.90